Time;durP1;ratioP1;P1;durP2;ratioP2;P2;SDS_P1;SDS_P2;PMS_P1;PMS_P2;Temp;Humidity;BMP_temperature;BMP_pressure;BME280_temperature;BME280_humidity;BME280_pressure;Samples;Min_cycle;Max_cycle;Signal;HPM_P1;HPM_P2
2022/01/25 00:26:24;;;;;;;27.75;11.30;;;;;;;;;;5013393;28;100629;-75
2022/01/25 00:29:13;;;;;;;30.58;12.50;;;;;;;;;;5013916;28;99997;-76
2022/01/25 00:31:41;;;;;;;28.33;12.82;;;;;;;;;;4993234;28;100218;-75
2022/01/25 00:34:08;;;;;;;34.85;13.85;;;;;;;;;;4975764;28;100204;-75
2022/01/25 00:36:35;;;;;;;35.22;14.00;;;;;;;;;;4993445;28;100543;-75
2022/01/25 00:39:03;;;;;;;35.25;14.55;;;;;;;;;;4991818;28;100087;-75
2022/01/25 00:41:30;;;;;;;33.42;12.10;;;;;;;;;;4992853;28;100112;-75
2022/01/25 00:43:59;;;;;;;28.67;11.88;;;;;;;;;;4973781;28;102147;-75
2022/01/25 00:46:26;;;;;;;30.33;12.77;;;;;;;;;;4993357;28;100572;-75
2022/01/25 00:48:58;;;;;;;29.23;12.32;;;;;;;;;;5006112;28;100329;-75
2022/01/25 00:54:05;;;;;;;35.85;13.88;;;;;;;;;;5011847;28;100156;-75
2022/01/25 00:56:37;;;;;;;33.20;14.48;;;;;;;;;;5012059;28;100779;-74
2022/01/25 00:59:11;;;;;;;27.70;10.13;;;;;;;;;;5011667;28;100222;-75
2022/01/25 01:01:38;;;;;;;30.23;12.73;;;;;;;;;;4999638;28;102693;-74
2022/01/25 01:04:05;;;;;;;30.08;12.55;;;;;;;;;;4975552;28;100878;-75
2022/01/25 01:06:32;;;;;;;30.15;13.10;;;;;;;;;;4974764;28;101062;-75
2022/01/25 01:08:59;;;;;;;33.60;11.18;;;;;;;;;;4992316;28;100211;-75
2022/01/25 01:11:34;;;;;;;28.08;12.57;;;;;;;;;;5002421;28;101408;-75
2022/01/25 01:38:36;;;;;;;27.85;9.98;;;;;;;;;;4982821;28;103861;-75
2022/01/25 01:43:56;;;;;;;28.08;11.85;;;;;;;;;;5011536;28;100123;-75
2022/01/25 01:48:55;;;;;;;26.58;12.43;;;;;;;;;;4991248;28;101231;-75
2022/01/25 01:51:29;;;;;;;29.27;12.60;;;;;;;;;;4997018;28;100125;-74
2022/01/25 01:53:57;;;;;;;29.35;12.00;;;;;;;;;;4992905;28;100079;-74
2022/01/25 01:56:24;;;;;;;32.95;12.93;;;;;;;;;;4959685;28;101420;-74
2022/01/25 01:58:52;;;;;;;25.55;10.55;;;;;;;;;;4999606;28;100517;-74
2022/01/25 02:01:24;;;;;;;27.88;11.93;;;;;;;;;;4996528;28;100080;-74
2022/01/25 02:03:52;;;;;;;27.77;11.88;;;;;;;;;;4993709;28;100150;-74
2022/01/25 02:06:18;;;;;;;28.13;11.05;;;;;;;;;;4994106;28;100753;-75
2022/01/25 02:08:45;;;;;;;25.00;11.63;;;;;;;;;;5015371;28;103336;-74
2022/01/25 02:11:12;;;;;;;33.78;12.88;;;;;;;;;;5033692;28;100053;-75
2022/01/25 02:13:41;;;;;;;38.28;14.68;;;;;;;;;;5015304;28;100101;-74
2022/01/25 02:16:15;;;;;;;27.63;12.40;;;;;;;;;;5015331;28;100182;-74
2022/01/25 02:24:12;;;;;;;27.13;10.73;;;;;;;;;;5033527;28;100107;-74
2022/01/25 02:26:39;;;;;;;29.33;11.95;;;;;;;;;;4997444;28;102332;-74
2022/01/25 02:29:06;;;;;;;24.13;10.25;;;;;;;;;;5015097;28;100569;-74
2022/01/25 02:31:33;;;;;;;25.60;11.50;;;;;;;;;;5015289;28;100072;-74
2022/01/25 02:33:59;;;;;;;28.70;11.02;;;;;;;;;;5018901;28;100099;-74
2022/01/25 02:36:27;;;;;;;25.27;10.30;;;;;;;;;;5018509;28;100146;-75
2022/01/25 02:38:55;;;;;;;21.50;9.35;;;;;;;;;;5018463;28;100592;-75
2022/01/25 02:41:22;;;;;;;24.23;9.93;;;;;;;;;;5036857;28;100018;-75
2022/01/25 02:43:50;;;;;;;26.05;11.32;;;;;;;;;;5003033;28;100130;-74
2022/01/25 02:48:51;;;;;;;26.63;10.30;;;;;;;;;;5018101;28;100597;-73
2022/01/25 02:51:19;;;;;;;15.35;7.95;;;;;;;;;;5036778;28;100115;-74
2022/01/25 02:53:46;;;;;;;24.30;10.27;;;;;;;;;;5019208;28;99964;-73
2022/01/25 02:56:14;;;;;;;29.50;12.50;;;;;;;;;;5015937;28;100263;-74
2022/01/25 02:58:41;;;;;;;29.73;11.95;;;;;;;;;;5015513;28;100734;-74
2022/01/25 03:01:08;;;;;;;22.98;9.90;;;;;;;;;;4998600;28;100096;-74
2022/01/25 03:03:35;;;;;;;33.78;13.43;;;;;;;;;;4998813;28;100211;-74
2022/01/25 03:06:02;;;;;;;26.40;11.15;;;;;;;;;;4981507;28;100164;-74
2022/01/25 03:08:29;;;;;;;29.58;12.60;;;;;;;;;;4981833;28;100571;-74
2022/01/25 03:10:56;;;;;;;29.80;12.48;;;;;;;;;;4982066;28;100189;-74
2022/01/25 03:13:29;;;;;;;34.08;13.73;;;;;;;;;;4981670;28;100261;-76
2022/01/25 03:16:02;;;;;;;23.67;11.05;;;;;;;;;;4983280;28;100106;-75
2022/01/25 03:21:03;;;;;;;33.42;13.85;;;;;;;;;;5014812;28;100094;-75
2022/01/25 03:23:32;;;;;;;23.20;9.57;;;;;;;;;;5016083;28;100125;-75
2022/01/25 03:25:59;;;;;;;24.35;10.45;;;;;;;;;;4997957;28;100222;-76
2022/01/25 03:28:25;;;;;;;29.17;12.88;;;;;;;;;;4997851;28;100681;-75
2022/01/25 03:30:52;;;;;;;28.60;11.85;;;;;;;;;;4998381;28;100100;-75
2022/01/25 03:33:19;;;;;;;28.58;12.60;;;;;;;;;;5016020;28;100003;-75
2022/01/25 03:35:46;;;;;;;30.55;13.82;;;;;;;;;;4965206;28;100209;-74
2022/01/25 03:38:13;;;;;;;23.58;10.68;;;;;;;;;;5015186;28;100976;-75
2022/01/25 03:40:40;;;;;;;28.67;12.55;;;;;;;;;;4998570;28;99976;-75
2022/01/25 03:43:08;;;;;;;24.73;10.77;;;;;;;;;;5035679;27;99984;-75
2022/01/25 03:45:38;;;;;;;27.58;11.60;;;;;;;;;;5016112;28;102172;-75
2022/01/25 03:50:41;;;;;;;21.70;10.02;;;;;;;;;;5035930;28;100171;-75
2022/01/25 03:53:09;;;;;;;23.25;10.65;;;;;;;;;;5001276;28;100160;-75
2022/01/25 03:55:35;;;;;;;20.90;9.98;;;;;;;;;;5000929;28;100127;-75
2022/01/25 03:58:02;;;;;;;23.92;9.43;;;;;;;;;;5000263;27;100666;-75
2022/01/25 04:00:29;;;;;;;30.02;10.40;;;;;;;;;;5035660;28;100252;-75
2022/01/25 04:03:37;;;;;;;28.98;11.60;;;;;;;;;;5035711;28;99975;-75
2022/01/25 04:05:52;;;;;;;26.52;10.38;;;;;;;;;;5018785;28;100211;-75
2022/01/25 04:08:19;;;;;;;28.90;11.93;;;;;;;;;;5017513;28;101061;-76
2022/01/25 04:10:46;;;;;;;31.70;11.23;;;;;;;;;;5001156;28;100128;-73
2022/01/25 04:13:13;;;;;;;22.77;10.27;;;;;;;;;;5035441;28;100411;-74
2022/01/25 04:15:49;;;;;;;25.77;11.48;;;;;;;;;;5000549;28;100186;-74
2022/01/25 04:18:31;;;;;;;26.65;10.95;;;;;;;;;;5034908;28;100646;-74
2022/01/25 04:21:11;;;;;;;24.38;10.35;;;;;;;;;;5003979;28;100244;-74
2022/01/25 04:26:23;;;;;;;24.00;9.55;;;;;;;;;;5015130;28;100641;-74
2022/01/25 04:28:50;;;;;;;29.95;11.40;;;;;;;;;;5015486;28;100537;-74
2022/01/25 04:31:19;;;;;;;29.83;10.95;;;;;;;;;;4998537;28;100161;-74
2022/01/25 04:34:07;;;;;;;25.33;10.20;;;;;;;;;;4999497;28;100016;-75
2022/01/25 04:48:54;;;;;;;30.05;11.85;;;;;;;;;;5017367;28;100163;-73
2022/01/25 04:53:20;;;;;;;22.27;9.95;;;;;;;;;;4999642;28;100096;-75
2022/01/25 04:56:04;;;;;;;30.80;11.68;;;;;;;;;;4981728;28;100018;-75
2022/01/25 04:58:58;;;;;;;28.33;11.38;;;;;;;;;;4959358;28;100863;-75
2022/01/25 05:01:20;;;;;;;33.17;11.88;;;;;;;;;;4990532;28;103071;-75
2022/01/25 05:04:13;;;;;;;30.83;12.40;;;;;;;;;;4991970;28;100181;-75
2022/01/25 05:06:35;;;;;;;28.20;11.45;;;;;;;;;;4992884;28;100126;-75
2022/01/25 05:09:11;;;;;;;26.33;10.98;;;;;;;;;;4989840;28;102044;-75
2022/01/25 05:11:43;;;;;;;32.17;12.65;;;;;;;;;;4991605;28;100550;-74
2022/01/25 05:14:23;;;;;;;33.25;12.48;;;;;;;;;;4991916;28;100202;-74
2022/01/25 05:16:54;;;;;;;26.40;11.40;;;;;;;;;;4977480;28;100131;-74
2022/01/25 05:19:36;;;;;;;28.98;12.07;;;;;;;;;;4991367;28;100737;-74
2022/01/25 05:22:07;;;;;;;27.50;11.73;;;;;;;;;;4990933;28;100563;-74
2022/01/25 05:24:37;;;;;;;29.33;11.10;;;;;;;;;;4992255;28;100151;-75
2022/01/25 05:27:04;;;;;;;30.60;11.23;;;;;;;;;;4990442;28;100282;-76
2022/01/25 05:29:31;;;;;;;28.73;12.25;;;;;;;;;;4970953;28;100854;-75
2022/01/25 05:31:58;;;;;;;37.10;14.30;;;;;;;;;;4991112;28;100934;-75
2022/01/25 05:34:25;;;;;;;25.73;10.65;;;;;;;;;;4974726;28;100175;-75
2022/01/25 05:36:52;;;;;;;28.30;12.85;;;;;;;;;;4992638;28;100178;-76
2022/01/25 05:39:24;;;;;;;27.90;12.50;;;;;;;;;;4989453;28;100271;-76
2022/01/25 05:41:57;;;;;;;31.30;11.90;;;;;;;;;;4991175;28;100673;-76
2022/01/25 05:44:42;;;;;;;27.10;12.27;;;;;;;;;;4990267;28;100097;-75
2022/01/25 05:47:13;;;;;;;30.95;13.20;;;;;;;;;;4991204;28;100100;-76
2022/01/25 05:49:40;;;;;;;34.22;14.23;;;;;;;;;;4991698;28;100410;-75
2022/01/25 05:52:08;;;;;;;36.53;11.93;;;;;;;;;;4990702;28;100832;-75
2022/01/25 05:54:36;;;;;;;25.30;11.80;;;;;;;;;;4974143;28;100233;-76
2022/01/25 05:57:04;;;;;;;31.50;12.50;;;;;;;;;;4974974;28;100048;-75
2022/01/25 05:59:31;;;;;;;35.63;13.45;;;;;;;;;;4973365;28;100311;-75
2022/01/25 06:01:58;;;;;;;34.35;13.95;;;;;;;;;;4991725;28;100469;-75
2022/01/25 06:04:25;;;;;;;30.30;12.10;;;;;;;;;;4992011;28;100129;-76
2022/01/25 06:06:52;;;;;;;34.25;13.73;;;;;;;;;;4991765;28;100087;-75
2022/01/25 06:09:18;;;;;;;34.28;14.40;;;;;;;;;;4991735;28;100320;-74
2022/01/25 06:11:45;;;;;;;32.13;13.68;;;;;;;;;;4990391;28;100661;-74
2022/01/25 06:14:12;;;;;;;37.45;14.60;;;;;;;;;;4990514;28;100509;-75
2022/01/25 06:16:39;;;;;;;28.05;12.32;;;;;;;;;;4992181;28;100087;-74
2022/01/25 06:19:06;;;;;;;34.00;13.43;;;;;;;;;;4973913;28;100385;-75
2022/01/25 06:21:35;;;;;;;35.20;15.38;;;;;;;;;;4990447;28;100913;-74
2022/01/25 06:24:02;;;;;;;30.58;12.73;;;;;;;;;;4971510;28;100050;-74
2022/01/25 06:26:29;;;;;;;30.83;13.70;;;;;;;;;;4990453;28;100140;-74
2022/01/25 06:28:56;;;;;;;32.88;13.48;;;;;;;;;;4991792;28;100279;-74
2022/01/25 06:31:23;;;;;;;32.85;13.30;;;;;;;;;;4991745;28;100644;-76
2022/01/25 06:33:50;;;;;;;33.28;13.55;;;;;;;;;;5001877;28;100587;-75
2022/01/25 06:36:18;;;;;;;34.38;13.90;;;;;;;;;;5010419;28;100163;-74
2022/01/25 06:38:45;;;;;;;25.20;12.57;;;;;;;;;;5009586;28;100449;-74
2022/01/25 06:41:14;;;;;;;34.20;12.50;;;;;;;;;;5010150;28;100746;-74
2022/01/25 06:43:41;;;;;;;24.23;11.32;;;;;;;;;;5011420;28;100239;-74
2022/01/25 06:46:08;;;;;;;22.60;11.05;;;;;;;;;;5011701;28;99993;-74
2022/01/25 06:48:35;;;;;;;29.33;13.75;;;;;;;;;;5011161;28;100753;-74
2022/01/25 06:51:02;;;;;;;37.72;14.52;;;;;;;;;;5006322;28;101138;-74
2022/01/25 06:53:29;;;;;;;40.33;14.95;;;;;;;;;;4990605;28;100078;-75
2022/01/25 06:55:55;;;;;;;50.83;18.17;;;;;;;;;;4991716;28;100024;-74
2022/01/25 06:58:24;;;;;;;38.22;15.77;;;;;;;;;;4988974;28;100314;-75
2022/01/25 07:00:50;;;;;;;37.00;14.07;;;;;;;;;;4973461;28;100742;-74
2022/01/25 07:03:18;;;;;;;27.90;13.27;;;;;;;;;;4995929;28;100183;-74
2022/01/25 07:05:44;;;;;;;37.08;14.55;;;;;;;;;;5009322;28;100179;-74
2022/01/25 07:08:11;;;;;;;39.13;15.95;;;;;;;;;;5009795;28;100445;-75
2022/01/25 07:10:38;;;;;;;40.65;16.13;;;;;;;;;;4973583;28;101632;-75
2022/01/25 07:13:05;;;;;;;33.63;12.35;;;;;;;;;;4974254;28;100153;-76
2022/01/25 07:15:32;;;;;;;35.13;15.38;;;;;;;;;;4974930;28;101647;-74
2022/01/25 07:17:58;;;;;;;35.20;15.93;;;;;;;;;;5011170;28;100376;-75
2022/01/25 07:20:25;;;;;;;43.72;16.90;;;;;;;;;;4997628;28;101088;-74
2022/01/25 07:22:52;;;;;;;46.08;18.60;;;;;;;;;;4994330;28;100203;-76
2022/01/25 07:25:19;;;;;;;34.63;14.90;;;;;;;;;;4993674;28;100069;-75
2022/01/25 07:27:46;;;;;;;36.00;15.80;;;;;;;;;;4993806;28;100228;-75
2022/01/25 07:30:13;;;;;;;45.85;18.40;;;;;;;;;;4976340;28;101043;-76
2022/01/25 07:32:40;;;;;;;37.38;15.60;;;;;;;;;;4993685;28;100134;-74
2022/01/25 07:35:08;;;;;;;33.25;13.45;;;;;;;;;;4992340;28;100140;-74
2022/01/25 07:37:39;;;;;;;36.45;15.63;;;;;;;;;;4990040;28;100905;-75
2022/01/25 07:40:10;;;;;;;30.83;13.27;;;;;;;;;;4976548;28;100662;-73
2022/01/25 07:42:40;;;;;;;33.25;13.10;;;;;;;;;;4977612;28;100155;-73
2022/01/25 07:45:10;;;;;;;34.08;14.30;;;;;;;;;;4994867;28;100318;-74
2022/01/25 07:47:45;;;;;;;35.80;13.75;;;;;;;;;;4992971;28;100365;-73
2022/01/25 07:50:11;;;;;;;35.80;15.27;;;;;;;;;;4994168;28;101920;-74
2022/01/25 07:52:38;;;;;;;36.83;14.68;;;;;;;;;;4992544;28;100233;-74
2022/01/25 07:55:06;;;;;;;35.97;13.57;;;;;;;;;;4993150;28;100095;-74
2022/01/25 07:57:34;;;;;;;37.92;15.23;;;;;;;;;;4993836;28;100440;-74
2022/01/25 08:00:01;;;;;;;50.95;17.88;;;;;;;;;;5010472;28;100536;-74
2022/01/25 08:02:40;;;;;;;31.25;12.32;;;;;;;;;;4997799;28;100158;-74
2022/01/25 08:05:30;;;;;;;38.55;15.25;;;;;;;;;;4895579;28;100117;-76
2022/01/25 08:08:14;;;;;;;35.38;13.77;;;;;;;;;;4888824;28;100418;-75
2022/01/25 08:10:48;;;;;;;39.35;16.02;;;;;;;;;;4917673;28;100781;-75
2022/01/25 08:13:37;;;;;;;42.45;16.55;;;;;;;;;;4900770;28;100290;-75
2022/01/25 08:16:21;;;;;;;38.95;16.10;;;;;;;;;;4919028;28;100342;-75
2022/01/25 08:18:57;;;;;;;40.97;15.77;;;;;;;;;;4930861;28;100861;-75
2022/01/25 08:21:28;;;;;;;43.38;16.42;;;;;;;;;;4931808;28;100569;-74
2022/01/25 08:24:11;;;;;;;41.85;17.85;;;;;;;;;;4850560;28;100477;-75
2022/01/25 08:26:54;;;;;;;41.78;15.45;;;;;;;;;;4828087;28;100382;-76
2022/01/25 08:29:38;;;;;;;53.78;19.00;;;;;;;;;;4869654;28;103165;-75
2022/01/25 08:32:34;;;;;;;35.90;14.25;;;;;;;;;;4824969;29;102433;-75
2022/01/25 08:35:33;;;;;;;36.67;15.23;;;;;;;;;;4805169;29;100393;-75
2022/01/25 08:38:19;;;;;;;38.72;16.20;;;;;;;;;;4824715;29;100327;-75
2022/01/25 08:41:06;;;;;;;39.47;16.97;;;;;;;;;;4839445;28;100785;-75
2022/01/25 08:43:40;;;;;;;36.47;14.75;;;;;;;;;;4892621;28;101853;-77
2022/01/25 08:46:17;;;;;;;35.53;13.90;;;;;;;;;;4878887;28;100450;-77
2022/01/25 08:48:51;;;;;;;;;;;;;;;;;;4907404;28;99996;-74
2022/01/25 08:51:32;;;;;;;36.47;14.60;;;;;;;;;;4954824;28;100250;-75
2022/01/25 08:54:16;;;;;;;40.67;15.07;;;;;;;;;;4941647;28;100633;-75
2022/01/25 08:56:51;;;;;;;37.83;15.57;;;;;;;;;;4954997;28;100280;-75
2022/01/25 08:59:35;;;;;;;44.55;15.90;;;;;;;;;;4956760;28;100229;-76
2022/01/25 09:02:02;;;;;;;42.83;17.88;;;;;;;;;;5032049;28;100198;-76
2022/01/25 09:04:30;;;;;;;45.63;17.38;;;;;;;;;;5014608;28;100847;-74
2022/01/25 09:06:57;;;;;;;39.53;15.73;;;;;;;;;;5032719;28;100015;-76
2022/01/25 09:09:24;;;;;;;39.15;16.38;;;;;;;;;;5000155;28;100651;-75
2022/01/25 09:11:50;;;;;;;35.53;15.30;;;;;;;;;;5014105;28;100280;-75
2022/01/25 09:14:17;;;;;;;52.95;19.30;;;;;;;;;;5012357;28;100692;-75
2022/01/25 09:16:44;;;;;;;52.22;19.23;;;;;;;;;;4977971;28;100161;-75
2022/01/25 09:19:11;;;;;;;53.85;20.52;;;;;;;;;;4978348;28;100104;-75
2022/01/25 09:21:38;;;;;;;57.95;20.75;;;;;;;;;;4977085;28;100732;-76
2022/01/25 09:24:05;;;;;;;44.90;16.35;;;;;;;;;;5011702;28;100522;-75
2022/01/25 09:26:32;;;;;;;42.47;17.60;;;;;;;;;;5012424;28;100198;-75
2022/01/25 09:28:59;;;;;;;43.25;16.60;;;;;;;;;;4995015;28;100159;-76
2022/01/25 09:31:26;;;;;;;44.88;17.27;;;;;;;;;;4990490;28;102200;-76
2022/01/25 09:33:53;;;;;;;34.08;14.98;;;;;;;;;;4997806;28;100680;-75
2022/01/25 09:36:20;;;;;;;42.50;16.17;;;;;;;;;;5013810;28;100217;-75
2022/01/25 09:38:47;;;;;;;32.35;14.75;;;;;;;;;;5031975;28;100444;-75
2022/01/25 09:41:14;;;;;;;43.22;17.30;;;;;;;;;;5013477;28;100169;-75
2022/01/25 09:43:41;;;;;;;46.58;17.80;;;;;;;;;;5031374;28;101068;-75
2022/01/25 09:46:08;;;;;;;36.00;14.55;;;;;;;;;;5027284;28;100082;-76
2022/01/25 09:48:35;;;;;;;45.08;17.63;;;;;;;;;;5003174;28;100299;-76
2022/01/25 09:51:02;;;;;;;39.25;15.10;;;;;;;;;;4997110;28;100121;-75
2022/01/25 09:53:33;;;;;;;37.10;16.25;;;;;;;;;;4998065;28;100655;-76
2022/01/25 09:55:59;;;;;;;40.50;17.02;;;;;;;;;;4973992;28;100728;-75
2022/01/25 09:58:26;;;;;;;27.98;12.55;;;;;;;;;;4996487;28;100141;-75
2022/01/25 10:00:57;;;;;;;43.92;17.13;;;;;;;;;;4995755;28;100365;-76
2022/01/25 10:03:30;;;;;;;43.25;17.55;;;;;;;;;;4997954;28;100344;-76
2022/01/25 10:06:02;;;;;;;36.22;15.45;;;;;;;;;;5013028;28;100145;-76
2022/01/25 10:08:36;;;;;;;45.40;17.90;;;;;;;;;;5000367;28;100795;-75
2022/01/25 10:11:04;;;;;;;;;;;;;;;;;;5013607;28;100386;-75
2022/01/25 10:13:31;;;;;;;42.90;16.42;;;;;;;;;;5031108;28;100585;-75
2022/01/25 10:16:09;;;;;;;41.95;16.35;;;;;;;;;;5031441;28;100149;-76
2022/01/25 10:18:37;;;;;;;32.58;13.45;;;;;;;;;;5013964;28;100066;-75
2022/01/25 10:21:10;;;;;;;32.95;14.85;;;;;;;;;;5012922;28;101039;-75
2022/01/25 10:23:36;;;;;;;35.83;15.60;;;;;;;;;;5001901;28;100635;-76
2022/01/25 10:26:04;;;;;;;46.17;17.60;;;;;;;;;;5010743;28;100121;-76
2022/01/25 10:28:31;;;;;;;44.00;18.15;;;;;;;;;;4993262;28;100088;-76
2022/01/25 10:30:59;;;;;;;43.25;17.98;;;;;;;;;;4992034;28;100228;-76
2022/01/25 10:33:34;;;;;;;46.05;19.02;;;;;;;;;;4992741;28;100764;-76
2022/01/25 10:36:12;;;;;;;38.53;15.63;;;;;;;;;;5002343;28;100170;-76
2022/01/25 10:38:41;;;;;;;42.95;17.13;;;;;;;;;;5026599;28;100025;-76
2022/01/25 10:41:13;;;;;;;44.53;17.85;;;;;;;;;;4988882;28;100527;-76
2022/01/25 10:43:40;;;;;;;36.75;16.08;;;;;;;;;;4973986;28;100701;-76
2022/01/25 10:46:16;;;;;;;37.85;16.67;;;;;;;;;;4992836;28;100696;-75
2022/01/25 10:49:06;;;;;;;49.03;18.42;;;;;;;;;;4992911;28;100245;-75
2022/01/25 10:51:47;;;;;;;35.60;15.75;;;;;;;;;;5000761;28;100213;-75
2022/01/25 10:54:20;;;;;;;38.70;15.13;;;;;;;;;;5023280;28;100671;-76
2022/01/25 10:56:57;;;;;;;49.15;18.90;;;;;;;;;;5005315;28;100080;-75
2022/01/25 10:59:29;;;;;;;28.67;14.40;;;;;;;;;;5021975;28;100888;-75
2022/01/25 11:01:57;;;;;;;35.53;16.38;;;;;;;;;;4988537;28;100494;-75
2022/01/25 11:04:31;;;;;;;38.35;15.00;;;;;;;;;;5006121;28;100626;-75
2022/01/25 11:07:09;;;;;;;32.45;12.55;;;;;;;;;;5004843;28;100759;-75
2022/01/25 11:09:41;;;;;;;45.58;16.95;;;;;;;;;;5005320;28;100212;-76
2022/01/25 11:12:11;;;;;;;33.85;15.02;;;;;;;;;;4994082;28;100276;-75
2022/01/25 11:14:50;;;;;;;30.08;13.52;;;;;;;;;;4979724;28;101146;-74
2022/01/25 11:17:21;;;;;;;33.45;13.73;;;;;;;;;;5024016;28;100572;-74
2022/01/25 11:19:48;;;;;;;39.33;15.77;;;;;;;;;;5013975;28;100021;-75
2022/01/25 11:22:19;;;;;;;31.25;14.73;;;;;;;;;;5003006;28;100429;-75
2022/01/25 11:24:57;;;;;;;42.17;18.17;;;;;;;;;;5013391;28;100674;-76
2022/01/25 11:27:28;;;;;;;35.80;14.88;;;;;;;;;;5013516;28;100157;-75
2022/01/25 11:30:06;;;;;;;33.03;14.23;;;;;;;;;;4994307;28;100019;-74
2022/01/25 11:32:37;;;;;;;38.58;17.17;;;;;;;;;;5014382;28;100861;-75
2022/01/25 11:35:04;;;;;;;36.75;16.27;;;;;;;;;;4998473;28;100551;-75
2022/01/25 11:37:39;;;;;;;36.92;16.23;;;;;;;;;;4975471;28;101422;-76
2022/01/25 11:40:26;;;;;;;35.17;13.85;;;;;;;;;;5014981;28;100540;-76
2022/01/25 11:42:55;;;;;;;33.83;13.43;;;;;;;;;;5011913;28;100369;-75
2022/01/25 11:45:28;;;;;;;41.42;15.95;;;;;;;;;;4994863;28;100562;-74
2022/01/25 11:47:55;;;;;;;39.90;15.82;;;;;;;;;;5014954;28;100128;-75
2022/01/25 11:50:42;;;;;;;26.95;12.32;;;;;;;;;;5003658;28;100108;-75
2022/01/25 11:53:19;;;;;;;32.15;13.32;;;;;;;;;;4995874;28;100788;-75
2022/01/25 11:55:48;;;;;;;30.85;12.98;;;;;;;;;;4995205;28;100814;-75
2022/01/25 11:58:17;;;;;;;34.17;14.65;;;;;;;;;;4995174;28;100135;-75
2022/01/25 12:00:52;;;;;;;29.52;13.52;;;;;;;;;;4996173;28;100150;-75
2022/01/25 12:03:30;;;;;;;36.60;15.93;;;;;;;;;;5014320;28;101966;-75
2022/01/25 12:06:07;;;;;;;35.13;15.95;;;;;;;;;;5014572;28;100603;-75
2022/01/25 12:08:50;;;;;;;33.10;13.75;;;;;;;;;;5019634;28;100790;-77
2022/01/25 12:11:29;;;;;;;27.65;12.50;;;;;;;;;;4981530;28;100159;-76
2022/01/25 12:14:17;;;;;;;37.50;14.88;;;;;;;;;;5015307;28;100792;-74
2022/01/25 12:16:54;;;;;;;36.08;13.77;;;;;;;;;;5032718;28;100625;-76
2022/01/25 12:19:45;;;;;;;33.83;14.48;;;;;;;;;;5032554;28;100246;-76
2022/01/25 12:22:33;;;;;;;29.40;11.55;;;;;;;;;;5018456;28;100228;-75
2022/01/25 12:25:26;;;;;;;37.13;15.05;;;;;;;;;;4998549;28;100218;-75
2022/01/25 12:27:59;;;;;;;25.13;11.10;;;;;;;;;;4998046;28;101146;-76
2022/01/25 12:30:26;;;;;;;25.48;10.82;;;;;;;;;;5033406;28;100206;-76
2022/01/25 12:32:59;;;;;;;30.17;12.82;;;;;;;;;;4996670;28;100066;-75
2022/01/25 12:35:45;;;;;;;21.70;10.13;;;;;;;;;;5005162;28;101961;-74
2022/01/25 12:38:27;;;;;;;43.33;16.05;;;;;;;;;;4996922;28;101931;-75
2022/01/25 12:41:05;;;;;;;23.10;10.65;;;;;;;;;;4992158;28;100229;-75
2022/01/25 12:43:38;;;;;;;33.78;14.38;;;;;;;;;;4996636;28;102213;-75
2022/01/25 12:46:06;;;;;;;30.70;12.35;;;;;;;;;;4993948;28;100780;-74
2022/01/25 12:48:35;;;;;;;25.15;11.23;;;;;;;;;;4994894;28;100618;-75
2022/01/25 12:51:10;;;;;;;21.65;9.93;;;;;;;;;;4994076;28;100217;-75
2022/01/25 12:53:42;;;;;;;25.15;10.43;;;;;;;;;;5012977;28;100174;-75
2022/01/25 12:56:12;;;;;;;23.48;9.98;;;;;;;;;;4994252;28;100816;-75
2022/01/25 12:58:39;;;;;;;32.03;13.63;;;;;;;;;;4994199;28;100531;-75
2022/01/25 13:01:10;;;;;;;24.77;10.98;;;;;;;;;;4994081;28;101853;-75
2022/01/25 13:03:43;;;;;;;27.05;12.02;;;;;;;;;;4989778;28;100250;-75
2022/01/25 13:06:12;;;;;;;19.13;8.45;;;;;;;;;;4992218;28;100811;-75
2022/01/25 13:08:45;;;;;;;25.70;10.88;;;;;;;;;;4993146;28;101668;-74
2022/01/25 13:11:48;;;;;;;24.25;10.82;;;;;;;;;;5014310;28;100205;-74
2022/01/25 13:17:15;;;;;;;22.20;9.05;;;;;;;;;;5001800;28;100217;-74
2022/01/25 13:19:51;;;;;;;23.92;10.35;;;;;;;;;;4997343;28;100622;-75
2022/01/25 13:22:32;;;;;;;25.02;9.25;;;;;;;;;;5013301;28;100502;-75
2022/01/25 13:25:13;;;;;;;27.27;11.57;;;;;;;;;;5032324;28;100270;-75
2022/01/25 13:30:42;;;;;;;21.45;8.98;;;;;;;;;;5010381;28;100540;-75
2022/01/25 13:33:10;;;;;;;20.48;8.13;;;;;;;;;;4982170;28;100072;-75
2022/01/25 13:35:40;;;;;;;20.83;10.07;;;;;;;;;;4997359;28;100576;-75
2022/01/25 13:38:11;;;;;;;22.77;10.15;;;;;;;;;;4978295;28;100263;-76
2022/01/25 13:46:21;;;;;;;24.17;8.97;;;;;;;;;;5007718;28;100338;-75
2022/01/25 13:48:50;;;;;;;34.90;12.50;;;;;;;;;;5011505;28;100498;-75
2022/01/25 13:51:18;;;;;;;24.20;8.95;;;;;;;;;;5016167;28;100648;-75
2022/01/25 13:53:58;;;;;;;27.77;9.60;;;;;;;;;;4985227;28;100102;-74
2022/01/25 13:56:33;;;;;;;28.55;10.80;;;;;;;;;;5013585;28;100166;-74
2022/01/25 13:59:00;;;;;;;28.40;10.65;;;;;;;;;;5005139;28;100273;-75
2022/01/25 14:01:28;;;;;;;27.33;10.90;;;;;;;;;;4993033;28;100631;-74
2022/01/25 14:04:06;;;;;;;26.65;10.95;;;;;;;;;;5013795;28;100073;-75
2022/01/25 14:06:39;;;;;;;26.85;11.23;;;;;;;;;;4994602;28;101344;-75
2022/01/25 14:09:16;;;;;;;29.48;10.88;;;;;;;;;;5025007;28;101317;-76
2022/01/25 14:25:24;;;;;;;31.33;11.50;;;;;;;;;;5019547;28;100224;-75
2022/01/25 14:27:54;;;;;;;38.08;16.02;;;;;;;;;;5012514;28;100130;-76
2022/01/25 14:30:20;;;;;;;31.80;11.85;;;;;;;;;;4983283;28;100818;-76
2022/01/25 14:33:00;;;;;;;34.03;12.40;;;;;;;;;;5014115;28;102160;-76
2022/01/25 14:35:27;;;;;;;29.13;10.93;;;;;;;;;;5031576;28;100122;-75
2022/01/25 14:38:02;;;;;;;26.52;11.82;;;;;;;;;;4988491;28;100137;-75
2022/01/25 14:40:29;;;;;;;32.30;12.02;;;;;;;;;;4997629;28;100777;-75
2022/01/25 14:42:56;;;;;;;33.60;12.23;;;;;;;;;;5028199;28;100706;-75
2022/01/25 14:45:23;;;;;;;42.58;14.18;;;;;;;;;;5006791;28;100203;-75
2022/01/25 14:47:53;;;;;;;27.23;11.65;;;;;;;;;;5014557;28;100100;-75
2022/01/25 14:50:32;;;;;;;23.83;11.38;;;;;;;;;;4979923;28;100965;-75
2022/01/25 14:53:03;;;;;;;29.17;12.02;;;;;;;;;;4996369;28;101174;-75
2022/01/25 14:55:31;;;;;;;25.30;10.48;;;;;;;;;;5004574;28;100086;-75
2022/01/25 15:00:51;;;;;;;24.92;11.48;;;;;;;;;;4996888;28;100277;-75
2022/01/25 15:03:19;;;;;;;26.83;10.60;;;;;;;;;;5014028;28;100756;-75
2022/01/25 15:05:47;;;;;;;29.52;11.52;;;;;;;;;;4995339;28;101371;-74
2022/01/25 15:08:14;;;;;;;26.30;10.63;;;;;;;;;;5033991;28;100546;-75
2022/01/25 15:10:46;;;;;;;34.05;12.18;;;;;;;;;;5033746;28;100833;-74
2022/01/25 15:13:23;;;;;;;37.80;13.82;;;;;;;;;;4991311;28;100567;-74
2022/01/25 15:15:56;;;;;;;27.40;12.18;;;;;;;;;;5017155;28;99954;-76
2022/01/25 15:18:38;;;;;;;33.15;14.07;;;;;;;;;;5017153;28;100020;-74
2022/01/25 15:21:05;;;;;;;29.52;11.45;;;;;;;;;;5000907;28;100378;-75
2022/01/25 15:23:35;;;;;;;33.05;13.18;;;;;;;;;;4989938;28;100651;-74
2022/01/25 15:26:07;;;;;;;30.23;12.43;;;;;;;;;;5015058;28;100161;-75
2022/01/25 15:28:40;;;;;;;32.85;13.30;;;;;;;;;;4980261;28;100130;-75
2022/01/25 15:31:09;;;;;;;25.33;11.02;;;;;;;;;;4999828;28;101474;-74
2022/01/25 15:33:37;;;;;;;24.23;11.23;;;;;;;;;;5015360;28;101096;-75
2022/01/25 15:36:06;;;;;;;33.90;13.80;;;;;;;;;;5010396;28;101094;-75
2022/01/25 15:38:36;;;;;;;35.40;15.48;;;;;;;;;;4994611;28;100960;-74
2022/01/25 15:41:11;;;;;;;33.45;13.98;;;;;;;;;;4989730;28;100167;-76
2022/01/25 15:44:02;;;;;;;32.65;18.42;;;;;;;;;;5005661;28;101327;-74
2022/01/25 15:47:15;;;;;;;30.00;14.23;;;;;;;;;;5001969;28;100045;-74
2022/01/25 15:49:17;;;;;;;33.35;14.23;;;;;;;;;;5008669;28;100271;-74
2022/01/25 15:51:53;;;;;;;29.05;13.75;;;;;;;;;;5016841;28;100782;-74
2022/01/25 15:54:20;;;;;;;35.42;15.45;;;;;;;;;;5018863;28;101123;-74
2022/01/25 15:56:46;;;;;;;34.22;14.00;;;;;;;;;;5033383;28;100250;-74
2022/01/25 15:59:17;;;;;;;34.92;13.98;;;;;;;;;;5014856;28;100231;-74
2022/01/25 16:01:58;;;;;;;34.90;14.80;;;;;;;;;;5010461;28;100291;-76
2022/01/25 16:04:26;;;;;;;36.88;16.95;;;;;;;;;;4991796;28;101755;-74
2022/01/25 16:06:53;;;;;;;32.75;13.93;;;;;;;;;;4994203;28;101682;-75
2022/01/25 16:09:22;;;;;;;35.65;14.13;;;;;;;;;;4997243;28;100168;-75
2022/01/25 16:11:49;;;;;;;37.83;14.73;;;;;;;;;;4960979;28;102358;-75
2022/01/25 16:14:16;;;;;;;37.08;15.52;;;;;;;;;;4962902;28;100814;-75
2022/01/25 16:16:44;;;;;;;35.35;14.18;;;;;;;;;;5015008;28;100307;-75
2022/01/25 16:19:16;;;;;;;33.75;14.75;;;;;;;;;;4996021;28;100119;-74
2022/01/25 16:21:43;;;;;;;53.97;19.10;;;;;;;;;;4996312;28;100120;-75
2022/01/25 16:24:10;;;;;;;40.58;17.65;;;;;;;;;;5016904;28;100708;-75
2022/01/25 16:26:38;;;;;;;40.03;15.48;;;;;;;;;;5017339;28;100377;-76